createdAt,value
2018-04-12T00:00:43.442Z,25.40
2018-04-12T00:03:10.386Z,20.80
2018-04-12T00:05:36.424Z,19.83
2018-04-12T00:08:02.572Z,19.67
2018-04-12T00:10:30.171Z,20.90
2018-04-12T00:12:56.215Z,20.50
2018-04-12T00:15:22.247Z,20.37
2018-04-12T00:17:48.551Z,21.87
2018-04-12T00:20:14.597Z,14.17
2018-04-12T00:22:41.393Z,15.43
2018-04-12T00:25:07.686Z,29.50
2018-04-12T00:27:33.792Z,18.63
2018-04-12T00:29:59.869Z,20.03
2018-04-12T00:32:26.240Z,18.10
2018-04-12T00:34:52.267Z,17.73
2018-04-12T00:37:19.041Z,23.40
2018-04-12T00:39:45.104Z,15.20
2018-04-12T00:42:11.131Z,22.17
2018-04-12T00:44:37.190Z,19.63
2018-04-12T00:47:03.413Z,14.23
2018-04-12T00:49:29.431Z,20.97
2018-04-12T00:51:55.565Z,15.17
2018-04-12T00:54:21.693Z,14.53
2018-04-12T00:56:47.928Z,18.00
2018-04-12T00:59:14.741Z,20.30
2018-04-12T01:01:40.825Z,22.43
2018-04-12T01:04:06.884Z,29.87
2018-04-12T01:06:32.993Z,21.33
2018-04-12T01:08:59.763Z,19.43
2018-04-12T01:11:25.841Z,14.80
2018-04-12T01:13:51.912Z,17.50
2018-04-12T01:16:17.992Z,16.00
2018-04-12T01:18:44.043Z,15.93
2018-04-12T01:21:10.102Z,19.07
2018-04-12T01:23:36.170Z,21.40
2018-04-12T01:26:02.207Z,22.10
2018-04-12T01:28:29.001Z,18.30
2018-04-12T01:30:55.098Z,16.93
2018-04-12T01:33:21.126Z,19.33
2018-04-12T01:35:47.226Z,21.80
2018-04-12T01:38:13.265Z,20.90
2018-04-12T01:40:39.295Z,19.43
2018-04-12T01:43:05.329Z,19.40
2018-04-12T01:45:31.429Z,16.83
2018-04-12T01:47:58.261Z,14.80
2018-04-12T01:50:24.313Z,18.23
2018-04-12T01:52:51.138Z,14.27
2018-04-12T01:55:17.164Z,21.47
2018-04-12T01:57:43.259Z,22.27
2018-04-12T02:00:09.308Z,21.83
2018-04-12T02:02:35.326Z,14.67
2018-04-12T02:05:02.155Z,20.53
2018-04-12T02:07:28.198Z,17.63
2018-04-12T02:09:54.240Z,25.03
2018-04-12T02:12:20.333Z,22.83
2018-04-12T02:14:46.396Z,21.63
2018-04-12T02:17:12.474Z,27.13
2018-04-12T02:19:38.525Z,18.23
2018-04-12T02:22:04.569Z,22.13
2018-04-12T02:24:30.650Z,29.23
2018-04-12T02:26:56.707Z,22.90
2018-04-12T02:29:22.790Z,20.73
2018-04-12T02:31:49.280Z,16.17
2018-04-12T02:34:15.349Z,20.13
2018-04-12T02:36:42.144Z,22.20
2018-04-12T02:39:08.192Z,15.73
2018-04-12T02:41:34.269Z,23.10
2018-04-12T02:44:01.058Z,19.57
2018-04-12T02:46:27.158Z,17.97
2018-04-12T02:48:53.975Z,20.30
2018-04-12T02:51:20.100Z,26.67
2018-04-12T02:53:46.261Z,19.40
2018-04-12T02:56:12.359Z,21.30
2018-04-12T02:58:38.405Z,21.63
2018-04-12T03:01:04.469Z,22.87
2018-04-12T03:03:30.582Z,16.87
2018-04-12T03:05:56.610Z,18.40
2018-04-12T03:08:22.741Z,21.50
2018-04-12T03:10:49.005Z,26.30
2018-04-12T03:13:15.067Z,22.47
2018-04-12T03:15:41.173Z,29.70
2018-04-12T03:18:07.227Z,18.17
2018-04-12T03:20:33.337Z,27.00
2018-04-12T03:22:59.387Z,24.97
2018-04-12T03:25:25.421Z,23.13
2018-04-12T03:27:51.447Z,20.30
2018-04-12T03:30:17.613Z,24.07
2018-04-12T03:32:43.923Z,24.63
2018-04-12T03:35:10.019Z,26.57
2018-04-12T03:37:36.113Z,26.43
2018-04-12T03:40:02.184Z,25.27
2018-04-12T03:42:28.221Z,27.63
2018-04-12T03:44:55.125Z,29.70
2018-04-12T03:47:21.912Z,24.03
2018-04-12T03:49:47.944Z,28.57
2018-04-12T03:52:14.265Z,31.53
2018-04-12T03:54:40.342Z,23.00
2018-04-12T03:57:06.374Z,31.47
2018-04-12T03:59:32.421Z,27.13
2018-04-12T04:01:58.447Z,35.23
2018-04-12T04:04:24.475Z,31.47
2018-04-12T04:06:50.562Z,31.23
2018-04-12T04:09:16.687Z,26.73
2018-04-12T04:11:42.806Z,29.23
2018-04-12T04:14:21.235Z,28.93
2018-04-12T04:16:59.491Z,27.67
2018-04-12T04:19:38.135Z,30.73
2018-04-12T04:22:04.920Z,29.53
2018-04-12T04:24:30.972Z,24.77
2018-04-12T04:26:57.048Z,32.30
2018-04-12T04:29:23.098Z,34.13
2018-04-12T04:31:49.924Z,32.83
2018-04-12T04:34:16.278Z,34.63
2018-04-12T04:36:42.325Z,22.43
2018-04-12T04:39:08.418Z,30.07
2018-04-12T04:41:34.516Z,35.40
2018-04-12T04:44:01.476Z,31.17
2018-04-12T04:46:28.337Z,29.50
2018-04-12T04:48:54.398Z,34.77
2018-04-12T04:51:20.657Z,32.53
2018-04-12T04:53:46.973Z,31.03
2018-04-12T04:56:13.139Z,36.63
2018-04-12T04:58:39.204Z,32.70
2018-04-12T05:01:05.353Z,31.63
2018-04-12T05:03:31.523Z,35.00
2018-04-12T05:05:57.649Z,32.30
2018-04-12T05:08:24.651Z,38.73
2018-04-12T05:10:50.735Z,34.10
2018-04-12T05:13:16.785Z,28.60
2018-04-12T05:15:42.912Z,41.63
2018-04-12T05:18:08.906Z,34.43
2018-04-12T05:20:35.135Z,28.60
2018-04-12T05:23:01.317Z,32.67
2018-04-12T05:25:27.363Z,33.03
2018-04-12T05:27:53.449Z,32.27
2018-04-12T05:30:20.315Z,29.37
2018-04-12T05:32:46.426Z,33.40
2018-04-12T05:35:12.525Z,30.53
2018-04-12T05:37:38.678Z,34.30
2018-04-12T05:40:05.518Z,33.47
2018-04-12T05:42:31.557Z,29.90
2018-04-12T05:44:57.631Z,29.80
2018-04-12T05:47:23.820Z,36.87
2018-04-12T05:49:50.637Z,37.33
2018-04-12T05:52:16.706Z,30.07
2018-04-12T05:54:42.827Z,33.03
2018-04-12T05:57:08.877Z,31.13
2018-04-12T05:59:35.062Z,22.80
2018-04-12T06:02:01.399Z,35.63
2018-04-12T06:04:28.242Z,36.33
2018-04-12T06:06:54.290Z,28.80
2018-04-12T06:09:21.695Z,27.57
2018-04-12T06:11:47.826Z,25.63
2018-04-12T06:14:13.899Z,28.87
2018-04-12T06:16:40.133Z,32.73
2018-04-12T06:19:06.177Z,36.43
2018-04-12T06:21:32.253Z,27.73
2018-04-12T06:23:58.305Z,36.17
2018-04-12T06:26:24.370Z,27.70
2018-04-12T06:28:50.454Z,27.80
2018-04-12T06:31:16.555Z,30.20
2018-04-12T06:33:42.651Z,39.13
2018-04-12T06:36:09.439Z,36.27
2018-04-12T06:38:35.553Z,25.03
2018-04-12T06:41:01.578Z,28.57
2018-04-12T06:43:28.345Z,29.70
2018-04-12T06:45:54.400Z,30.67
2018-04-12T06:48:20.529Z,26.97
2018-04-12T06:50:46.610Z,24.80
2018-04-12T06:53:12.671Z,31.40
2018-04-12T06:55:38.726Z,30.93
2018-04-12T06:58:05.995Z,36.03
2018-04-12T07:00:32.035Z,31.17
2018-04-12T07:02:58.139Z,29.77
2018-04-12T07:05:24.226Z,23.10
2018-04-12T07:07:50.358Z,22.17
2018-04-12T07:10:16.471Z,27.70
2018-04-12T07:12:43.374Z,23.00
2018-04-12T07:15:09.418Z,32.77
2018-04-12T07:17:35.587Z,31.30
2018-04-12T07:20:01.643Z,27.80
2018-04-12T07:22:27.677Z,28.33
2018-04-12T07:24:53.712Z,28.23
2018-04-12T07:27:20.595Z,27.73
2018-04-12T07:29:46.726Z,30.73
2018-04-12T07:32:12.773Z,28.57
2018-04-12T07:34:39.126Z,28.57
2018-04-12T07:37:05.232Z,34.20
2018-04-12T07:39:32.021Z,24.90
2018-04-12T07:41:58.446Z,29.43
2018-04-12T07:44:24.507Z,29.37
2018-04-12T07:46:50.607Z,26.10
2018-04-12T07:49:17.446Z,27.80
2018-04-12T07:51:43.473Z,30.43
2018-04-12T07:54:09.559Z,24.53
2018-04-12T07:56:35.697Z,33.63
2018-04-12T07:59:01.763Z,34.83
2018-04-12T08:01:27.873Z,32.20
2018-04-12T08:03:53.965Z,27.63
2018-04-12T08:06:20.139Z,29.63
2018-04-12T08:08:47.093Z,34.00
2018-04-12T08:11:13.916Z,25.73
2018-04-12T08:13:40.031Z,30.83
2018-04-12T08:16:06.962Z,31.37
2018-04-12T08:18:33.142Z,39.30
2018-04-12T08:20:59.213Z,32.90
2018-04-12T08:23:26.039Z,33.60
2018-04-12T08:25:52.107Z,30.07
2018-04-12T08:28:19.338Z,32.03
2018-04-12T08:30:45.454Z,39.70
2018-04-12T08:33:11.479Z,39.30
2018-04-12T08:35:37.627Z,42.90
2018-04-12T08:38:03.728Z,36.50
2018-04-12T08:40:29.883Z,33.37
2018-04-12T08:42:55.959Z,33.50
2018-04-12T08:45:22.009Z,35.47
2018-04-12T08:47:48.111Z,31.50
2018-04-12T08:50:14.160Z,36.77
2018-04-12T08:52:40.183Z,32.97
2018-04-12T08:55:06.203Z,36.43
2018-04-12T08:57:33.026Z,35.97
2018-04-12T08:59:59.067Z,35.53
2018-04-12T09:02:25.154Z,27.63
2018-04-12T09:04:51.290Z,29.47
2018-04-12T09:07:17.427Z,32.30
2018-04-12T09:09:43.470Z,31.77
2018-04-12T09:12:09.604Z,36.70
2018-04-12T09:14:36.499Z,33.10
2018-04-12T09:17:02.622Z,27.53
2018-04-12T09:19:28.776Z,37.23
2018-04-12T09:21:54.801Z,36.27
2018-04-12T09:24:20.913Z,39.20
2018-04-12T09:26:47.069Z,33.07
2018-04-12T09:29:13.140Z,29.63
2018-04-12T09:31:39.210Z,32.23
2018-04-12T09:34:06.097Z,31.77
2018-04-12T09:36:32.229Z,30.50
2018-04-12T09:38:58.281Z,31.00
2018-04-12T09:41:24.347Z,34.50
2018-04-12T09:43:50.414Z,38.63
2018-04-12T09:46:16.518Z,30.87
2018-04-12T09:48:42.541Z,30.73
2018-04-12T09:51:09.419Z,42.20
2018-04-12T09:53:35.535Z,38.00
2018-04-12T09:56:08.895Z,33.40
2018-04-12T09:58:35.077Z,29.50
2018-04-12T10:01:01.138Z,32.87
2018-04-12T10:03:27.235Z,32.63
2018-04-12T10:05:59.599Z,36.87
2018-04-12T10:08:26.468Z,36.73
2018-04-12T10:10:55.795Z,35.13
2018-04-12T10:13:21.871Z,31.97
2018-04-12T10:15:47.942Z,41.20
2018-04-12T10:18:14.094Z,28.43
2018-04-12T10:20:40.159Z,33.03
2018-04-12T10:23:06.240Z,35.40
2018-04-12T10:25:32.556Z,35.40
2018-04-12T10:27:58.543Z,33.70
2018-04-12T10:30:24.585Z,29.70
2018-04-12T10:32:50.812Z,32.00
2018-04-12T10:35:16.894Z,30.13
2018-04-12T10:37:43.022Z,31.07
2018-04-12T10:40:09.129Z,28.30
2018-04-12T10:42:36.202Z,31.13
2018-04-12T10:45:02.296Z,27.57
2018-04-12T10:47:28.513Z,37.37
2018-04-12T10:49:54.581Z,26.70
2018-04-12T10:52:20.724Z,25.80
2018-04-12T10:54:47.915Z,25.17
2018-04-12T10:57:13.999Z,29.00
2018-04-12T10:59:41.087Z,25.27
2018-04-12T11:02:07.935Z,32.47
2018-04-12T11:04:34.185Z,30.53
2018-04-12T11:07:00.274Z,29.40
2018-04-12T11:09:26.709Z,26.20
2018-04-12T11:11:52.772Z,32.43
2018-04-12T11:14:18.867Z,25.47
2018-04-12T11:16:44.932Z,39.40
2018-04-12T11:19:11.001Z,35.80
2018-04-12T11:21:37.096Z,26.27
2018-04-12T11:24:03.161Z,29.70
2018-04-12T11:26:29.222Z,28.93
2018-04-12T11:28:55.499Z,29.90
2018-04-12T11:31:22.362Z,27.60
2018-04-12T11:33:49.337Z,25.77
2018-04-12T11:36:15.426Z,24.17
2018-04-12T11:38:41.551Z,24.13
2018-04-12T11:41:07.610Z,32.00
2018-04-12T11:43:34.506Z,28.90
2018-04-12T11:46:00.634Z,23.80
2018-04-12T11:48:26.874Z,24.20
2018-04-12T11:50:53.048Z,33.43
2018-04-12T11:53:19.145Z,24.60
2018-04-12T11:55:45.202Z,28.03
2018-04-12T11:58:11.303Z,25.83
2018-04-12T12:00:37.334Z,23.83
2018-04-12T12:03:03.460Z,25.10
2018-04-12T12:05:29.589Z,23.37
2018-04-12T12:07:55.710Z,27.07
2018-04-12T12:10:21.785Z,25.27
2018-04-12T12:12:47.939Z,27.50
2018-04-12T12:17:48.831Z,26.37
2018-04-12T12:20:14.875Z,25.90
2018-04-12T12:22:40.955Z,23.17
2018-04-12T12:25:07.050Z,31.40
2018-04-12T12:27:33.155Z,34.60
2018-04-12T12:29:59.304Z,24.87
2018-04-12T12:32:25.430Z,30.83
2018-04-12T12:34:51.481Z,29.53
2018-04-12T12:37:17.575Z,26.57
2018-04-12T12:39:43.659Z,30.97
2018-04-12T12:42:10.490Z,30.40
2018-04-12T12:44:36.565Z,30.00
2018-04-12T12:47:03.422Z,26.77
2018-04-12T12:49:30.291Z,38.63
2018-04-12T12:51:57.120Z,28.40
2018-04-12T12:54:23.217Z,29.43
2018-04-12T12:56:49.370Z,31.40
2018-04-12T12:59:15.537Z,32.83
2018-04-12T13:01:41.655Z,34.60
2018-04-12T13:04:08.799Z,34.77
2018-04-12T13:06:35.033Z,30.83
2018-04-12T13:09:01.117Z,31.90
2018-04-12T13:11:27.444Z,28.10
2018-04-12T13:13:53.490Z,26.87
2018-04-12T13:16:19.593Z,36.07
2018-04-12T13:18:45.929Z,31.30
2018-04-12T13:21:11.973Z,33.03
2018-04-12T13:23:38.054Z,29.77
2018-04-12T13:26:04.934Z,27.00
2018-04-12T13:28:31.032Z,22.77
2018-04-12T13:30:57.070Z,29.73
2018-04-12T13:33:23.140Z,30.23
2018-04-12T13:35:49.217Z,25.97
2018-04-12T13:38:15.305Z,27.23
2018-04-12T13:40:41.406Z,30.67
2018-04-12T13:43:07.481Z,28.87
2018-04-12T13:45:33.586Z,27.00
2018-04-12T13:47:59.718Z,23.10
2018-04-12T13:50:25.784Z,24.57
2018-04-12T13:52:51.911Z,25.13
2018-04-12T13:55:18.202Z,24.47
2018-04-12T13:57:44.349Z,27.17
2018-04-12T14:00:10.417Z,26.23
2018-04-12T14:02:36.801Z,29.77
2018-04-12T14:05:03.639Z,30.63
2018-04-12T14:07:29.694Z,24.40
2018-04-12T14:09:56.367Z,27.57
2018-04-12T14:12:23.193Z,23.13
2018-04-12T14:14:49.574Z,22.87
2018-04-12T14:17:15.655Z,28.93
2018-04-12T14:19:41.797Z,26.80
2018-04-12T14:22:07.861Z,27.00
2018-04-12T14:24:33.951Z,24.90
2018-04-12T14:27:00.048Z,26.60
2018-04-12T14:29:26.377Z,25.53
2018-04-12T14:31:52.509Z,23.20
2018-04-12T14:34:18.936Z,20.80
2018-04-12T14:36:45.003Z,22.50
2018-04-12T14:39:11.062Z,24.40
2018-04-12T14:41:37.903Z,18.77
2018-04-12T14:44:04.016Z,19.57
2018-04-12T14:46:30.240Z,21.97
2018-04-12T14:48:56.300Z,20.30
2018-04-12T14:51:22.449Z,18.93
2018-04-12T14:53:48.653Z,17.93
2018-04-12T14:56:14.717Z,24.20
2018-04-12T14:58:40.869Z,20.93
2018-04-12T15:01:06.967Z,18.87
2018-04-12T15:03:33.015Z,20.00
2018-04-12T15:05:59.442Z,23.10
2018-04-12T15:08:27.391Z,18.67
2018-04-12T15:10:53.734Z,20.23
2018-04-12T15:13:19.981Z,22.30
2018-04-12T15:15:46.058Z,21.00
2018-04-12T15:18:12.096Z,18.83
2018-04-12T15:20:38.161Z,20.63
2018-04-12T15:23:04.432Z,21.47
2018-04-12T15:25:30.575Z,25.27
2018-04-12T15:27:57.417Z,20.60
2018-04-12T15:30:23.505Z,23.33
2018-04-12T15:32:49.614Z,25.03
2018-04-12T15:35:15.756Z,29.43
2018-04-12T15:37:41.818Z,23.27
2018-04-12T15:40:07.917Z,26.83
2018-04-12T15:42:34.774Z,27.70
2018-04-12T15:45:01.582Z,22.37
2018-04-12T15:47:27.964Z,21.13
2018-04-12T15:49:54.037Z,23.83
2018-04-12T15:52:20.161Z,23.67
2018-04-12T15:54:46.247Z,24.00
2018-04-12T15:57:13.076Z,22.33
2018-04-12T15:59:39.150Z,25.03
2018-04-12T16:02:05.326Z,27.40
2018-04-12T16:04:32.749Z,25.83
2018-04-12T16:06:58.842Z,27.30
2018-04-12T16:09:24.859Z,30.03
2018-04-12T16:11:51.669Z,26.83
2018-04-12T16:14:17.999Z,26.33
2018-04-12T16:16:44.087Z,27.13
2018-04-12T16:19:10.169Z,30.23
2018-04-12T16:21:36.273Z,33.00
2018-04-12T16:24:02.314Z,27.27
2018-04-12T16:26:28.375Z,27.00
2018-04-12T16:28:54.446Z,31.40
2018-04-12T16:31:20.577Z,28.90
2018-04-12T16:33:46.658Z,34.13
2018-04-12T16:36:13.447Z,31.37
2018-04-12T16:38:39.502Z,34.23
2018-04-12T16:41:05.644Z,26.90
2018-04-12T16:43:31.712Z,30.73
2018-04-12T16:45:57.803Z,33.27
2018-04-12T16:48:24.180Z,26.70
2018-04-12T16:50:50.357Z,26.60
2018-04-12T16:53:16.474Z,29.10
2018-04-12T16:55:43.377Z,33.77
2018-04-12T16:58:09.462Z,34.43
2018-04-12T17:00:35.735Z,29.33
2018-04-12T17:03:02.564Z,33.43
2018-04-12T17:05:29.472Z,35.93
2018-04-12T17:07:55.536Z,33.33
2018-04-12T17:10:21.597Z,37.40
2018-04-12T17:12:47.718Z,34.60
2018-04-12T17:15:13.805Z,31.63
2018-04-12T17:17:39.888Z,35.83
2018-04-12T17:20:06.014Z,38.17
2018-04-12T17:22:32.076Z,46.07
2018-04-12T17:24:58.195Z,50.60
2018-04-12T17:27:24.312Z,45.73
2018-04-12T17:29:50.412Z,34.90
2018-04-12T17:32:16.519Z,35.47
2018-04-12T17:34:42.663Z,38.07
2018-04-12T17:37:08.834Z,35.57
2018-04-12T17:39:34.958Z,35.63
2018-04-12T17:42:01.034Z,44.60
2018-04-12T17:44:27.881Z,71.97
2018-04-12T17:46:54.700Z,38.13
2018-04-12T17:49:20.789Z,42.23
2018-04-12T17:51:46.877Z,36.13
2018-04-12T17:54:12.962Z,43.33
2018-04-12T17:56:39.046Z,40.20
2018-04-12T17:59:05.455Z,38.33
2018-04-12T18:01:31.707Z,46.57
2018-04-12T18:03:57.774Z,36.70
2018-04-12T18:06:23.870Z,43.13
2018-04-12T18:08:51.092Z,37.30
2018-04-12T18:11:18.279Z,44.40
2018-04-12T18:13:44.751Z,40.67
2018-04-12T18:16:11.904Z,41.77
2018-04-12T18:18:38.541Z,34.10
2018-04-12T18:21:05.403Z,49.33
2018-04-12T18:23:32.224Z,35.63
2018-04-12T18:25:58.279Z,35.27
2018-04-12T18:28:24.366Z,42.80
2018-04-12T18:30:50.511Z,38.80
2018-04-12T18:33:16.841Z,53.03
2018-04-12T18:35:43.779Z,36.70
2018-04-12T18:38:09.894Z,34.83
2018-04-12T18:40:45.062Z,34.47
2018-04-12T18:43:11.711Z,39.20
2018-04-12T18:45:38.605Z,46.80
2018-04-12T18:48:04.758Z,36.77
2018-04-12T18:50:31.107Z,39.73
2018-04-12T18:52:57.188Z,33.87
2018-04-12T18:55:23.366Z,31.80
2018-04-12T18:57:49.458Z,33.83
2018-04-12T19:00:15.652Z,33.77
2018-04-12T19:02:42.476Z,34.37
2018-04-12T19:05:08.529Z,34.73
2018-04-12T19:07:34.600Z,35.00
2018-04-12T19:10:00.654Z,36.80
2018-04-12T19:12:26.694Z,38.33
2018-04-12T19:14:52.773Z,35.53
2018-04-12T19:17:19.087Z,36.20
2018-04-12T19:19:45.157Z,34.33
2018-04-12T19:22:11.232Z,30.70
2018-04-12T19:24:37.544Z,36.67
2018-04-12T19:27:03.673Z,35.27
2018-04-12T19:29:29.704Z,34.23
2018-04-12T19:31:56.539Z,36.90
2018-04-12T19:34:22.688Z,48.77
2018-04-12T19:36:49.519Z,44.43
2018-04-12T19:39:15.558Z,36.60
2018-04-12T19:41:41.625Z,30.50
2018-04-12T19:44:08.421Z,36.37
2018-04-12T19:46:34.693Z,44.93
2018-04-12T19:49:00.828Z,42.10
2018-04-12T19:51:26.896Z,38.13
2018-04-12T19:53:53.750Z,30.10
2018-04-12T19:56:20.996Z,40.47
2018-04-12T19:58:48.211Z,32.93
2018-04-12T20:01:23.288Z,37.63
2018-04-12T20:03:50.432Z,35.93
2018-04-12T20:06:16.675Z,36.90
2018-04-12T20:08:42.742Z,44.70
2018-04-12T20:11:09.533Z,36.30
2018-04-12T20:13:36.140Z,32.73
2018-04-12T20:16:05.702Z,31.53
2018-04-12T20:18:31.847Z,33.60
2018-04-12T20:20:57.912Z,32.50
2018-04-12T20:23:25.108Z,37.20
2018-04-12T20:25:51.227Z,33.47
2018-04-12T20:28:18.312Z,33.50
2018-04-12T20:30:44.416Z,31.03
2018-04-12T20:33:10.483Z,33.33
2018-04-12T20:35:36.642Z,31.60
2018-04-12T20:38:02.732Z,34.63
2018-04-12T20:40:28.838Z,34.50
2018-04-12T20:42:55.100Z,31.47
2018-04-12T20:45:24.367Z,37.80
2018-04-12T20:47:51.506Z,37.83
2018-04-12T20:50:17.578Z,31.63
2018-04-12T20:52:43.682Z,27.70
2018-04-12T20:55:10.031Z,33.40
2018-04-12T20:57:36.094Z,40.57
2018-04-12T21:00:02.242Z,29.27
2018-04-12T21:02:28.281Z,36.30
2018-04-12T21:04:56.507Z,34.67
2018-04-12T21:07:22.586Z,32.17
2018-04-12T21:09:48.646Z,32.77
2018-04-12T21:12:14.793Z,38.47
2018-04-12T21:14:40.863Z,30.23
2018-04-12T21:17:06.910Z,34.37
2018-04-12T21:19:32.965Z,35.60
2018-04-12T21:21:59.034Z,31.17
2018-04-12T21:24:25.119Z,31.47
2018-04-12T21:26:51.238Z,37.27
2018-04-12T21:29:18.391Z,31.10
2018-04-12T21:31:45.178Z,27.73
2018-04-12T21:34:11.299Z,36.20
2018-04-12T21:36:38.105Z,37.57
2018-04-12T21:39:04.289Z,27.27
2018-04-12T21:41:30.387Z,33.90
2018-04-12T21:43:56.424Z,29.47
2018-04-12T21:46:22.497Z,39.13
2018-04-12T21:48:49.339Z,36.30
2018-04-12T21:51:16.181Z,30.30
2018-04-12T21:53:42.247Z,38.07
2018-04-12T21:56:09.230Z,39.70
2018-04-12T21:58:36.108Z,36.83
2018-04-12T22:01:02.215Z,41.40
2018-04-12T22:03:29.053Z,32.63
2018-04-12T22:05:55.086Z,31.90
2018-04-12T22:08:21.283Z,36.63
2018-04-12T22:10:47.421Z,38.83
2018-04-12T22:13:14.274Z,36.00
2018-04-12T22:15:40.378Z,35.20
2018-04-12T22:18:07.299Z,36.43
2018-04-12T22:20:33.461Z,32.13
2018-04-12T22:22:59.467Z,39.30
2018-04-12T22:25:25.589Z,32.60
2018-04-12T22:27:51.670Z,33.57
2018-04-12T22:30:17.746Z,35.13
2018-04-12T22:32:43.874Z,39.67
2018-04-12T22:35:10.685Z,35.90
2018-04-12T22:37:36.826Z,34.70
2018-04-12T22:40:02.853Z,32.33
2018-04-12T22:42:28.948Z,27.23
2018-04-12T22:44:55.016Z,36.90
2018-04-12T22:47:21.098Z,34.00
2018-04-12T22:49:47.224Z,32.03
2018-04-12T22:52:13.282Z,31.93
2018-04-12T22:54:39.327Z,30.43
2018-04-12T22:57:05.430Z,54.63
2018-04-12T22:59:31.504Z,43.60
2018-04-12T23:01:57.580Z,35.40
2018-04-12T23:04:23.675Z,39.33
2018-04-12T23:06:50.592Z,35.53
2018-04-12T23:09:16.636Z,33.47
2018-04-12T23:11:43.502Z,38.63
2018-04-12T23:14:10.322Z,38.67
2018-04-12T23:16:36.423Z,32.63
2018-04-12T23:19:02.500Z,48.27
2018-04-12T23:21:28.577Z,32.87
2018-04-12T23:23:54.667Z,34.07
2018-04-12T23:26:20.757Z,33.17
2018-04-12T23:28:46.849Z,35.07
2018-04-12T23:31:13.109Z,40.30
2018-04-12T23:33:39.237Z,35.53
2018-04-12T23:36:05.369Z,43.33
2018-04-12T23:38:31.471Z,29.37
2018-04-12T23:40:57.537Z,33.10
2018-04-12T23:43:24.360Z,32.67
2018-04-12T23:45:51.286Z,33.47
2018-04-12T23:48:17.527Z,35.37
2018-04-12T23:50:43.695Z,36.77
2018-04-12T23:53:10.529Z,28.70
2018-04-12T23:55:36.817Z,35.80
2018-04-12T23:58:02.899Z,34.50
